sensor_id;sensor_type;location;lat;lon;timestamp;pressure;altitude;pressure_sealevel;temperature;humidity
38780;BME280;29273;49.962;9.768;2023-02-10T00:01:08;101693.72;;;1.24;49.75
38780;BME280;29273;49.962;9.768;2023-02-10T00:03:34;101695.78;;;1.19;49.74
38780;BME280;29273;49.962;9.768;2023-02-10T00:06:00;101697.56;;;1.19;49.60
38780;BME280;29273;49.962;9.768;2023-02-10T00:08:26;101699.44;;;1.17;49.44
38780;BME280;29273;49.962;9.768;2023-02-10T00:10:51;101698.66;;;1.15;49.33
38780;BME280;29273;49.962;9.768;2023-02-10T00:13:21;101703.13;;;1.13;49.38
38780;BME280;29273;49.962;9.768;2023-02-10T00:15:46;101710.31;;;1.09;49.31
38780;BME280;29273;49.962;9.768;2023-02-10T00:18:12;101705.28;;;1.06;49.28
38780;BME280;29273;49.962;9.768;2023-02-10T00:20:37;101717.59;;;1.04;49.27
38780;BME280;29273;49.962;9.768;2023-02-10T00:23:03;101727.38;;;1.00;49.39
38780;BME280;29273;49.962;9.768;2023-02-10T00:25:28;101726.59;;;0.98;48.82
38780;BME280;29273;49.962;9.768;2023-02-10T00:27:54;101719.00;;;0.95;49.26
38780;BME280;29273;49.962;9.768;2023-02-10T00:30:19;101717.31;;;0.94;49.26
38780;BME280;29273;49.962;9.768;2023-02-10T00:32:45;101718.22;;;0.93;49.45
38780;BME280;29273;49.962;9.768;2023-02-10T00:35:11;101726.13;;;0.91;49.50
38780;BME280;29273;49.962;9.768;2023-02-10T00:37:37;101721.88;;;0.90;49.31
38780;BME280;29273;49.962;9.768;2023-02-10T00:40:03;101724.56;;;0.89;49.40
38780;BME280;29273;49.962;9.768;2023-02-10T00:42:28;101735.84;;;0.89;49.64
38780;BME280;29273;49.962;9.768;2023-02-10T00:44:54;101736.00;;;0.86;49.00
38780;BME280;29273;49.962;9.768;2023-02-10T00:47:20;101733.56;;;0.83;49.09
38780;BME280;29273;49.962;9.768;2023-02-10T00:49:45;101739.00;;;0.80;49.19
38780;BME280;29273;49.962;9.768;2023-02-10T00:52:11;101737.41;;;0.78;49.29
38780;BME280;29273;49.962;9.768;2023-02-10T00:54:36;101738.31;;;0.77;49.18
38780;BME280;29273;49.962;9.768;2023-02-10T00:57:02;101747.19;;;0.74;49.10
38780;BME280;29273;49.962;9.768;2023-02-10T00:59:27;101750.78;;;0.71;49.21
38780;BME280;29273;49.962;9.768;2023-02-10T01:01:53;101747.44;;;0.69;49.12
38780;BME280;29273;49.962;9.768;2023-02-10T01:04:19;101747.69;;;0.65;48.99
38780;BME280;29273;49.962;9.768;2023-02-10T01:06:45;101752.25;;;0.61;48.99
38780;BME280;29273;49.962;9.768;2023-02-10T01:09:10;101750.69;;;0.59;48.97
38780;BME280;29273;49.962;9.768;2023-02-10T01:11:37;101762.94;;;0.57;49.12
38780;BME280;29273;49.962;9.768;2023-02-10T01:14:03;101756.91;;;0.56;49.09
38780;BME280;29273;49.962;9.768;2023-02-10T01:16:28;101751.78;;;0.54;49.25
38780;BME280;29273;49.962;9.768;2023-02-10T01:18:54;101759.59;;;0.54;49.18
38780;BME280;29273;49.962;9.768;2023-02-10T01:21:20;101755.34;;;0.53;49.21
38780;BME280;29273;49.962;9.768;2023-02-10T01:23:46;101750.22;;;0.52;49.16
38780;BME280;29273;49.962;9.768;2023-02-10T01:26:12;101762.38;;;0.51;49.20
38780;BME280;29273;49.962;9.768;2023-02-10T01:28:40;101768.72;;;0.47;49.17
38780;BME280;29273;49.962;9.768;2023-02-10T01:31:07;101761.97;;;0.43;49.19
38780;BME280;29273;49.962;9.768;2023-02-10T01:33:36;101760.56;;;0.38;49.31
38780;BME280;29273;49.962;9.768;2023-02-10T01:36:06;101767.56;;;0.37;49.40
38780;BME280;29273;49.962;9.768;2023-02-10T01:38:31;101771.34;;;0.31;49.56
38780;BME280;29273;49.962;9.768;2023-02-10T01:40:57;101767.16;;;0.29;49.43
38780;BME280;29273;49.962;9.768;2023-02-10T01:43:22;101764.63;;;0.27;49.46
38780;BME280;29273;49.962;9.768;2023-02-10T01:45:48;101764.72;;;0.26;49.45
38780;BME280;29273;49.962;9.768;2023-02-10T01:48:14;101767.31;;;0.26;49.43
38780;BME280;29273;49.962;9.768;2023-02-10T01:50:52;101767.16;;;0.29;49.28
38780;BME280;29273;49.962;9.768;2023-02-10T01:53:18;101766.50;;;0.25;49.39
38780;BME280;29273;49.962;9.768;2023-02-10T01:55:47;101770.66;;;0.28;49.34
38780;BME280;29273;49.962;9.768;2023-02-10T01:58:15;101775.97;;;0.26;49.42
38780;BME280;29273;49.962;9.768;2023-02-10T02:00:42;101766.56;;;0.24;49.47
38780;BME280;29273;49.962;9.768;2023-02-10T02:03:08;101776.06;;;0.25;49.39
38780;BME280;29273;49.962;9.768;2023-02-10T02:05:37;101775.06;;;0.27;49.37
38780;BME280;29273;49.962;9.768;2023-02-10T02:08:16;101774.22;;;0.27;48.92
38780;BME280;29273;49.962;9.768;2023-02-10T02:11:03;101775.22;;;0.24;48.94
38780;BME280;29273;49.962;9.768;2023-02-10T02:16:05;101777.16;;;0.21;48.98
38780;BME280;29273;49.962;9.768;2023-02-10T02:18:45;101775.47;;;0.20;48.90
38780;BME280;29273;49.962;9.768;2023-02-10T02:24:38;101788.66;;;0.16;49.09
38780;BME280;29273;49.962;9.768;2023-02-10T02:27:15;101787.00;;;0.15;49.12
38780;BME280;29273;49.962;9.768;2023-02-10T02:32:43;101786.34;;;0.12;48.94
38780;BME280;29273;49.962;9.768;2023-02-10T02:35:16;101789.78;;;0.12;48.96
38780;BME280;29273;49.962;9.768;2023-02-10T02:37:44;101792.53;;;0.09;49.13
38780;BME280;29273;49.962;9.768;2023-02-10T02:40:14;101783.91;;;0.09;49.16
38780;BME280;29273;49.962;9.768;2023-02-10T02:42:40;101797.00;;;0.07;49.21
38780;BME280;29273;49.962;9.768;2023-02-10T02:45:50;101802.22;;;0.07;49.02
38780;BME280;29273;49.962;9.768;2023-02-10T02:53:47;101812.06;;;0.02;49.00
38780;BME280;29273;49.962;9.768;2023-02-10T02:56:39;101806.25;;;-0.03;48.94
38780;BME280;29273;49.962;9.768;2023-02-10T02:59:34;101815.91;;;-0.05;48.82
38780;BME280;29273;49.962;9.768;2023-02-10T03:02:05;101815.81;;;-0.04;48.93
38780;BME280;29273;49.962;9.768;2023-02-10T03:04:33;101807.25;;;-0.06;49.00
38780;BME280;29273;49.962;9.768;2023-02-10T03:07:01;101818.59;;;-0.07;49.11
38780;BME280;29273;49.962;9.768;2023-02-10T03:09:27;101821.31;;;-0.08;49.30
38780;BME280;29273;49.962;9.768;2023-02-10T03:11:52;101804.72;;;-0.07;49.62
38780;BME280;29273;49.962;9.768;2023-02-10T03:14:18;101803.91;;;-0.08;49.55
38780;BME280;29273;49.962;9.768;2023-02-10T03:16:43;101801.97;;;-0.04;49.60
38780;BME280;29273;49.962;9.768;2023-02-10T03:19:09;101800.19;;;-0.04;49.36
38780;BME280;29273;49.962;9.768;2023-02-10T03:21:35;101801.06;;;-0.03;49.39
38780;BME280;29273;49.962;9.768;2023-02-10T03:24:00;101797.59;;;-0.04;49.47
38780;BME280;29273;49.962;9.768;2023-02-10T03:26:29;101798.44;;;-0.03;49.52
38780;BME280;29273;49.962;9.768;2023-02-10T03:28:55;101793.47;;;-0.08;49.61
38780;BME280;29273;49.962;9.768;2023-02-10T03:31:21;101788.28;;;-0.08;49.61
38780;BME280;29273;49.962;9.768;2023-02-10T03:33:47;101788.34;;;-0.09;49.63
38780;BME280;29273;49.962;9.768;2023-02-10T03:36:13;101790.13;;;-0.10;49.68
38780;BME280;29273;49.962;9.768;2023-02-10T03:38:38;101791.78;;;-0.09;49.58
38780;BME280;29273;49.962;9.768;2023-02-10T03:41:04;101789.19;;;-0.09;49.67
38780;BME280;29273;49.962;9.768;2023-02-10T03:43:30;101799.53;;;-0.07;49.93
38780;BME280;29273;49.962;9.768;2023-02-10T03:45:59;101803.75;;;-0.05;49.48
38780;BME280;29273;49.962;9.768;2023-02-10T03:48:25;101802.28;;;-0.10;49.42
38780;BME280;29273;49.962;9.768;2023-02-10T03:50:57;101816.34;;;-0.13;49.61
38780;BME280;29273;49.962;9.768;2023-02-10T03:53:22;101819.03;;;-0.14;49.54
38780;BME280;29273;49.962;9.768;2023-02-10T03:55:48;101812.97;;;-0.15;49.78
38780;BME280;29273;49.962;9.768;2023-02-10T03:58:13;101809.50;;;-0.15;49.63
38780;BME280;29273;49.962;9.768;2023-02-10T04:00:39;101814.63;;;-0.14;49.83
38780;BME280;29273;49.962;9.768;2023-02-10T04:03:04;101816.41;;;-0.14;49.74
38780;BME280;29273;49.962;9.768;2023-02-10T04:05:30;101821.53;;;-0.13;49.81
38780;BME280;29273;49.962;9.768;2023-02-10T04:07:55;101815.31;;;-0.10;49.88
38780;BME280;29273;49.962;9.768;2023-02-10T04:10:21;101830.03;;;-0.09;49.97
38780;BME280;29273;49.962;9.768;2023-02-10T04:12:47;101826.31;;;-0.05;50.06
38780;BME280;29273;49.962;9.768;2023-02-10T04:15:13;101823.72;;;-0.05;49.92
38780;BME280;29273;49.962;9.768;2023-02-10T04:17:38;101822.88;;;-0.06;49.83
38780;BME280;29273;49.962;9.768;2023-02-10T04:20:04;101824.56;;;-0.05;49.78
38780;BME280;29273;49.962;9.768;2023-02-10T04:22:30;101829.78;;;-0.05;49.63
38780;BME280;29273;49.962;9.768;2023-02-10T04:24:56;101828.00;;;-0.04;49.67
38780;BME280;29273;49.962;9.768;2023-02-10T04:27:22;101835.06;;;-0.06;49.72
38780;BME280;29273;49.962;9.768;2023-02-10T04:29:47;101833.31;;;-0.06;50.04
38780;BME280;29273;49.962;9.768;2023-02-10T04:32:13;101835.06;;;-0.06;49.80
38780;BME280;29273;49.962;9.768;2023-02-10T04:34:38;101822.13;;;-0.08;49.61
38780;BME280;29273;49.962;9.768;2023-02-10T04:37:03;101828.25;;;-0.09;49.56
38780;BME280;29273;49.962;9.768;2023-02-10T04:39:29;101836.94;;;-0.08;49.69
38780;BME280;29273;49.962;9.768;2023-02-10T04:41:55;101838.59;;;-0.07;49.63
38780;BME280;29273;49.962;9.768;2023-02-10T04:44:20;101840.44;;;-0.09;49.58
38780;BME280;29273;49.962;9.768;2023-02-10T04:46:46;101845.66;;;-0.09;49.60
38780;BME280;29273;49.962;9.768;2023-02-10T04:49:11;101841.19;;;-0.07;49.62
38780;BME280;29273;49.962;9.768;2023-02-10T04:51:36;101847.34;;;-0.08;49.76
38780;BME280;29273;49.962;9.768;2023-02-10T04:54:02;101846.47;;;-0.09;49.69
38780;BME280;29273;49.962;9.768;2023-02-10T04:56:27;101856.06;;;-0.09;49.67
38780;BME280;29273;49.962;9.768;2023-02-10T04:58:53;101858.75;;;-0.11;49.63
38780;BME280;29273;49.962;9.768;2023-02-10T05:01:18;101845.91;;;-0.14;49.83
38780;BME280;29273;49.962;9.768;2023-02-10T05:03:44;101857.06;;;-0.12;49.99
38780;BME280;29273;49.962;9.768;2023-02-10T05:06:13;101863.81;;;-0.08;50.25
38780;BME280;29273;49.962;9.768;2023-02-10T05:08:39;101858.59;;;-0.08;50.39
38780;BME280;29273;49.962;9.768;2023-02-10T05:11:12;101865.16;;;-0.01;50.44
38780;BME280;29273;49.962;9.768;2023-02-10T05:13:38;101865.16;;;-0.01;50.64
38780;BME280;29273;49.962;9.768;2023-02-10T05:16:05;101865.75;;;0.05;50.58
38780;BME280;29273;49.962;9.768;2023-02-10T05:18:31;101867.28;;;0.09;50.66
38780;BME280;29273;49.962;9.768;2023-02-10T05:20:58;101868.78;;;0.13;50.68
38780;BME280;29273;49.962;9.768;2023-02-10T05:23:24;101878.13;;;0.17;50.77
38780;BME280;29273;49.962;9.768;2023-02-10T05:25:50;101889.13;;;0.22;50.85
38780;BME280;29273;49.962;9.768;2023-02-10T05:28:15;101888.97;;;0.25;51.03
38780;BME280;29273;49.962;9.768;2023-02-10T05:30:41;101879.13;;;0.30;50.98
38780;BME280;29273;49.962;9.768;2023-02-10T05:33:06;101884.06;;;0.35;50.92
38780;BME280;29273;49.962;9.768;2023-02-10T05:35:32;101882.91;;;0.41;51.14
38780;BME280;29273;49.962;9.768;2023-02-10T05:37:57;101891.41;;;0.44;51.12
38780;BME280;29273;49.962;9.768;2023-02-10T05:40:23;101887.72;;;0.48;51.12
38780;BME280;29273;49.962;9.768;2023-02-10T05:42:49;101889.22;;;0.52;51.01
38780;BME280;29273;49.962;9.768;2023-02-10T05:45:14;101895.09;;;0.56;51.14
38780;BME280;29273;49.962;9.768;2023-02-10T05:47:40;101897.47;;;0.61;51.38
38780;BME280;29273;49.962;9.768;2023-02-10T05:50:06;101892.06;;;0.64;51.46
38780;BME280;29273;49.962;9.768;2023-02-10T05:52:31;101891.81;;;0.68;51.54
38780;BME280;29273;49.962;9.768;2023-02-10T05:54:56;101893.31;;;0.72;51.63
38780;BME280;29273;49.962;9.768;2023-02-10T05:57:22;101896.50;;;0.78;51.65
38780;BME280;29273;49.962;9.768;2023-02-10T05:59:47;101894.56;;;0.81;51.67
38780;BME280;29273;49.962;9.768;2023-02-10T06:02:13;101896.91;;;0.86;51.67
38780;BME280;29273;49.962;9.768;2023-02-10T06:04:38;101890.59;;;0.90;51.75
38780;BME280;29273;49.962;9.768;2023-02-10T06:07:04;101890.31;;;0.95;51.85
38780;BME280;29273;49.962;9.768;2023-02-10T06:09:30;101896.19;;;0.98;51.79
38780;BME280;29273;49.962;9.768;2023-02-10T06:11:55;101901.34;;;1.00;51.73
38780;BME280;29273;49.962;9.768;2023-02-10T06:14:22;101893.25;;;1.04;51.71
38780;BME280;29273;49.962;9.768;2023-02-10T06:16:47;101902.78;;;1.05;51.75
38780;BME280;29273;49.962;9.768;2023-02-10T06:19:13;101909.66;;;1.06;51.68
38780;BME280;29273;49.962;9.768;2023-02-10T06:21:38;101907.91;;;1.07;51.61
38780;BME280;29273;49.962;9.768;2023-02-10T06:24:04;101899.13;;;1.08;51.79
38780;BME280;29273;49.962;9.768;2023-02-10T06:26:29;101903.50;;;1.07;51.82
38780;BME280;29273;49.962;9.768;2023-02-10T06:28:55;101910.44;;;1.08;51.56
38780;BME280;29273;49.962;9.768;2023-02-10T06:31:21;101920.00;;;1.08;51.66
38780;BME280;29273;49.962;9.768;2023-02-10T06:33:47;101904.44;;;1.06;51.70
38780;BME280;29273;49.962;9.768;2023-02-10T06:36:12;101907.03;;;1.06;51.89
38780;BME280;29273;49.962;9.768;2023-02-10T06:38:39;101900.00;;;1.08;51.89
38780;BME280;29273;49.962;9.768;2023-02-10T06:41:05;101900.06;;;1.07;52.08
38780;BME280;29273;49.962;9.768;2023-02-10T06:43:31;101899.13;;;1.08;52.25
38780;BME280;29273;49.962;9.768;2023-02-10T06:45:57;101896.59;;;1.06;52.28
38780;BME280;29273;49.962;9.768;2023-02-10T06:48:23;101900.00;;;1.08;52.21
38780;BME280;29273;49.962;9.768;2023-02-10T06:50:48;101907.03;;;1.06;52.41
38780;BME280;29273;49.962;9.768;2023-02-10T06:53:13;101908.00;;;1.05;52.49
38780;BME280;29273;49.962;9.768;2023-02-10T06:55:39;101917.41;;;1.08;52.60
38780;BME280;29273;49.962;9.768;2023-02-10T06:58:04;101913.13;;;1.07;52.56
38780;BME280;29273;49.962;9.768;2023-02-10T07:00:30;101918.16;;;1.10;52.70
38780;BME280;29273;49.962;9.768;2023-02-10T07:02:58;101909.47;;;1.09;52.96
38780;BME280;29273;49.962;9.768;2023-02-10T07:05:24;101912.75;;;1.13;52.92
38780;BME280;29273;49.962;9.768;2023-02-10T07:07:49;101917.88;;;1.15;52.94
38780;BME280;29273;49.962;9.768;2023-02-10T07:10:17;101909.78;;;1.19;52.93
38780;BME280;29273;49.962;9.768;2023-02-10T07:12:43;101908.09;;;1.18;52.79
38780;BME280;29273;49.962;9.768;2023-02-10T07:15:09;101907.09;;;1.21;52.95
38780;BME280;29273;49.962;9.768;2023-02-10T07:17:34;101908.78;;;1.22;52.99
38780;BME280;29273;49.962;9.768;2023-02-10T07:20:02;101912.97;;;1.24;53.04
38780;BME280;29273;49.962;9.768;2023-02-10T07:22:27;101920.72;;;1.26;53.28
38780;BME280;29273;49.962;9.768;2023-02-10T07:24:53;101927.53;;;1.28;53.02
38780;BME280;29273;49.962;9.768;2023-02-10T07:27:19;101927.47;;;1.30;53.07
38780;BME280;29273;49.962;9.768;2023-02-10T07:29:44;101935.19;;;1.32;53.04
38780;BME280;29273;49.962;9.768;2023-02-10T07:32:10;101933.25;;;1.35;53.11
38780;BME280;29273;49.962;9.768;2023-02-10T07:34:35;101938.31;;;1.38;52.99
38780;BME280;29273;49.962;9.768;2023-02-10T07:37:01;101936.44;;;1.40;53.10
38780;BME280;29273;49.962;9.768;2023-02-10T07:39:26;101938.00;;;1.43;53.12
38780;BME280;29273;49.962;9.768;2023-02-10T07:41:53;101931.69;;;1.47;52.97
38780;BME280;29273;49.962;9.768;2023-02-10T07:44:20;101932.44;;;1.49;53.20
38780;BME280;29273;49.962;9.768;2023-02-10T07:46:47;101923.59;;;1.52;53.01
38780;BME280;29273;49.962;9.768;2023-02-10T07:49:12;101928.59;;;1.55;53.17
38780;BME280;29273;49.962;9.768;2023-02-10T07:51:38;101931.03;;;1.58;53.02
38780;BME280;29273;49.962;9.768;2023-02-10T07:54:04;101933.38;;;1.62;53.01
38780;BME280;29273;49.962;9.768;2023-02-10T07:56:31;101939.34;;;1.64;53.06
38780;BME280;29273;49.962;9.768;2023-02-10T07:58:56;101937.31;;;1.70;53.26
38780;BME280;29273;49.962;9.768;2023-02-10T08:01:22;101937.22;;;1.71;52.60
38780;BME280;29273;49.962;9.768;2023-02-10T08:03:47;101942.34;;;1.73;52.76
38780;BME280;29273;49.962;9.768;2023-02-10T08:06:19;101949.00;;;1.78;52.69
38780;BME280;29273;49.962;9.768;2023-02-10T08:08:45;101946.53;;;1.61;52.94
38780;BME280;29273;49.962;9.768;2023-02-10T08:11:11;101948.31;;;1.75;52.91
38780;BME280;29273;49.962;9.768;2023-02-10T08:13:37;101956.84;;;1.78;52.85
38780;BME280;29273;49.962;9.768;2023-02-10T08:16:04;101956.63;;;1.81;53.01
38780;BME280;29273;49.962;9.768;2023-02-10T08:18:30;101958.22;;;1.84;53.12
38780;BME280;29273;49.962;9.768;2023-02-10T08:20:58;101953.38;;;1.92;53.06
38780;BME280;29273;49.962;9.768;2023-02-10T08:23:24;101963.66;;;1.95;53.23
38780;BME280;29273;49.962;9.768;2023-02-10T08:25:49;101964.22;;;2.00;53.26
38780;BME280;29273;49.962;9.768;2023-02-10T08:28:17;101958.50;;;2.08;53.10
38780;BME280;29273;49.962;9.768;2023-02-10T08:30:42;101954.06;;;2.10;52.72
38780;BME280;29273;49.962;9.768;2023-02-10T08:33:08;101965.16;;;2.14;52.87
38780;BME280;29273;49.962;9.768;2023-02-10T08:35:35;101960.41;;;2.20;53.00
38780;BME280;29273;49.962;9.768;2023-02-10T08:38:01;101961.97;;;2.23;53.02
38780;BME280;29273;49.962;9.768;2023-02-10T08:40:26;101959.06;;;2.28;53.05
38780;BME280;29273;49.962;9.768;2023-02-10T08:42:52;101958.78;;;2.32;53.05
38780;BME280;29273;49.962;9.768;2023-02-10T08:45:17;101954.03;;;2.39;53.03
38780;BME280;29273;49.962;9.768;2023-02-10T08:47:43;101965.88;;;2.45;53.20
38780;BME280;29273;49.962;9.768;2023-02-10T08:50:08;101968.09;;;2.51;53.20
38780;BME280;29273;49.962;9.768;2023-02-10T08:52:34;101969.50;;;2.56;52.99
38780;BME280;29273;49.962;9.768;2023-02-10T08:54:59;101971.72;;;2.63;52.92
38780;BME280;29273;49.962;9.768;2023-02-10T08:57:27;101973.13;;;2.68;52.97
38780;BME280;29273;49.962;9.768;2023-02-10T08:59:52;101976.41;;;2.72;52.84
38780;BME280;29273;49.962;9.768;2023-02-10T09:02:18;101986.56;;;2.76;52.80
38780;BME280;29273;49.962;9.768;2023-02-10T09:04:43;101983.66;;;2.81;52.61
38780;BME280;29273;49.962;9.768;2023-02-10T09:07:10;101983.34;;;2.86;52.52
38780;BME280;29273;49.962;9.768;2023-02-10T09:09:38;101980.47;;;2.90;52.43
38780;BME280;29273;49.962;9.768;2023-02-10T09:12:03;101978.47;;;2.94;52.48
38780;BME280;29273;49.962;9.768;2023-02-10T09:14:30;101983.31;;;3.00;52.82
38780;BME280;29273;49.962;9.768;2023-02-10T09:16:55;101986.47;;;3.05;52.84
38780;BME280;29273;49.962;9.768;2023-02-10T09:19:21;101984.50;;;3.09;52.73
38780;BME280;29273;49.962;9.768;2023-02-10T09:21:46;101986.94;;;3.12;52.59
38780;BME280;29273;49.962;9.768;2023-02-10T09:24:12;101987.56;;;3.15;52.70
38780;BME280;29273;49.962;9.768;2023-02-10T09:26:37;101978.56;;;3.20;52.90
38780;BME280;29273;49.962;9.768;2023-02-10T09:29:03;101985.28;;;3.24;52.81
38780;BME280;29273;49.962;9.768;2023-02-10T09:31:28;101983.31;;;3.27;52.71
38780;BME280;29273;49.962;9.768;2023-02-10T09:33:54;101990.88;;;3.32;52.70
38780;BME280;29273;49.962;9.768;2023-02-10T09:36:19;101995.81;;;3.37;52.50
38780;BME280;29273;49.962;9.768;2023-02-10T09:38:45;101988.59;;;3.40;52.61
38780;BME280;29273;49.962;9.768;2023-02-10T09:42:01;101986.28;;;3.48;52.54
38780;BME280;29273;49.962;9.768;2023-02-10T09:44:26;101988.91;;;3.48;52.62
38780;BME280;29273;49.962;9.768;2023-02-10T09:47:19;101986.81;;;3.54;52.79
38780;BME280;29273;49.962;9.768;2023-02-10T09:55:29;101987.50;;;3.70;52.32
38780;BME280;29273;49.962;9.768;2023-02-10T09:58:02;101994.19;;;3.74;52.56
38780;BME280;29273;49.962;9.768;2023-02-10T10:00:36;101997.44;;;3.78;52.31
38780;BME280;29273;49.962;9.768;2023-02-10T10:03:05;102005.00;;;3.82;52.29
38780;BME280;29273;49.962;9.768;2023-02-10T10:05:55;101999.66;;;3.84;52.53
38780;BME280;29273;49.962;9.768;2023-02-10T10:10:53;102011.72;;;3.86;52.57
38780;BME280;29273;49.962;9.768;2023-02-10T10:13:24;102007.00;;;3.92;52.28
38780;BME280;29273;49.962;9.768;2023-02-10T10:16:09;102016.22;;;3.97;52.38
38780;BME280;29273;49.962;9.768;2023-02-10T10:18:51;102020.34;;;4.01;52.49
38780;BME280;29273;49.962;9.768;2023-02-10T10:21:26;102013.19;;;4.03;52.63
38780;BME280;29273;49.962;9.768;2023-02-10T10:26:42;102012.66;;;4.11;52.48
38780;BME280;29273;49.962;9.768;2023-02-10T10:31:48;102014.88;;;4.17;52.17
38780;BME280;29273;49.962;9.768;2023-02-10T10:34:21;102009.41;;;4.20;52.03
38780;BME280;29273;49.962;9.768;2023-02-10T10:36:55;102019.50;;;4.26;52.08
38780;BME280;29273;49.962;9.768;2023-02-10T10:39:41;102016.88;;;4.26;52.02
38780;BME280;29273;49.962;9.768;2023-02-10T10:42:25;102016.53;;;4.31;52.23
38780;BME280;29273;49.962;9.768;2023-02-10T10:44:57;102015.28;;;4.37;52.11
38780;BME280;29273;49.962;9.768;2023-02-10T10:50:03;102010.66;;;4.40;51.88
38780;BME280;29273;49.962;9.768;2023-02-10T10:52:32;102004.88;;;4.48;52.01
38780;BME280;29273;49.962;9.768;2023-02-10T10:55:02;102007.25;;;4.51;52.03
38780;BME280;29273;49.962;9.768;2023-02-10T10:57:32;102000.75;;;4.57;52.13
38780;BME280;29273;49.962;9.768;2023-02-10T11:00:09;101991.50;;;4.64;52.29
38780;BME280;29273;49.962;9.768;2023-02-10T11:02:38;102000.19;;;4.64;51.62
38780;BME280;29273;49.962;9.768;2023-02-10T11:05:09;101992.88;;;4.70;51.74
38780;BME280;29273;49.962;9.768;2023-02-10T11:07:36;101991.78;;;4.72;51.52
38780;BME280;29273;49.962;9.768;2023-02-10T11:10:02;101992.50;;;4.74;51.61
38780;BME280;29273;49.962;9.768;2023-02-10T11:12:36;101989.44;;;4.80;51.82
38780;BME280;29273;49.962;9.768;2023-02-10T11:17:53;101984.94;;;4.82;51.80
38780;BME280;29273;49.962;9.768;2023-02-10T11:20:26;101972.41;;;4.86;51.72
38780;BME280;29273;49.962;9.768;2023-02-10T11:23:16;101973.78;;;4.92;52.30
38780;BME280;29273;49.962;9.768;2023-02-10T11:25:46;101966.28;;;4.98;52.03
38780;BME280;29273;49.962;9.768;2023-02-10T11:28:23;101969.41;;;5.04;51.96
38780;BME280;29273;49.962;9.768;2023-02-10T11:30:56;101968.88;;;5.11;52.34
38780;BME280;29273;49.962;9.768;2023-02-10T11:33:26;101970.41;;;5.14;52.06
38780;BME280;29273;49.962;9.768;2023-02-10T11:36:07;101963.84;;;5.19;51.90
38780;BME280;29273;49.962;9.768;2023-02-10T11:38:34;101961.13;;;5.21;51.80
38780;BME280;29273;49.962;9.768;2023-02-10T11:41:10;101971.66;;;5.32;52.49
38780;BME280;29273;49.962;9.768;2023-02-10T11:43:44;101959.88;;;5.38;52.26
38780;BME280;29273;49.962;9.768;2023-02-10T11:46:22;101958.69;;;5.42;52.25
38780;BME280;29273;49.962;9.768;2023-02-10T11:49:12;101951.41;;;5.46;52.46
38780;BME280;29273;49.962;9.768;2023-02-10T11:51:51;101949.03;;;5.54;52.08
38780;BME280;29273;49.962;9.768;2023-02-10T11:54:18;101943.78;;;5.54;51.71
38780;BME280;29273;49.962;9.768;2023-02-10T12:00:16;101944.75;;;5.64;51.91
38780;BME280;29273;49.962;9.768;2023-02-10T12:03:04;101944.53;;;5.67;51.83
38780;BME280;29273;49.962;9.768;2023-02-10T12:05:48;101939.25;;;5.67;51.59
38780;BME280;29273;49.962;9.768;2023-02-10T12:11:06;101924.81;;;5.62;51.20
38780;BME280;29273;49.962;9.768;2023-02-10T12:16:51;101919.78;;;5.59;51.39
38780;BME280;29273;49.962;9.768;2023-02-10T12:19:27;101919.41;;;5.52;51.32
38780;BME280;29273;49.962;9.768;2023-02-10T12:22:02;101923.34;;;5.57;51.68
38780;BME280;29273;49.962;9.768;2023-02-10T12:24:46;101931.97;;;5.60;51.57
38780;BME280;29273;49.962;9.768;2023-02-10T12:27:23;101922.28;;;5.60;51.81
38780;BME280;29273;49.962;9.768;2023-02-10T12:35:36;101918.50;;;5.75;51.99
38780;BME280;29273;49.962;9.768;2023-02-10T12:41:06;101923.53;;;5.90;52.36
38780;BME280;29273;49.962;9.768;2023-02-10T12:46:33;101911.84;;;6.05;52.00
38780;BME280;29273;49.962;9.768;2023-02-10T12:49:04;101910.38;;;6.13;51.99
38780;BME280;29273;49.962;9.768;2023-02-10T12:54:18;101902.72;;;6.32;52.02
38780;BME280;29273;49.962;9.768;2023-02-10T12:56:46;101918.50;;;6.32;51.67
38780;BME280;29273;49.962;9.768;2023-02-10T12:59:18;101912.66;;;6.40;51.46
38780;BME280;29273;49.962;9.768;2023-02-10T13:01:55;101911.53;;;6.42;51.42
38780;BME280;29273;49.962;9.768;2023-02-10T13:04:25;101915.03;;;6.43;51.46
38780;BME280;29273;49.962;9.768;2023-02-10T13:09:48;101924.47;;;6.45;51.23
38780;BME280;29273;49.962;9.768;2023-02-10T13:12:28;101925.28;;;6.46;51.58
38780;BME280;29273;49.962;9.768;2023-02-10T13:15:14;101933.81;;;6.50;51.48
38780;BME280;29273;49.962;9.768;2023-02-10T13:17:46;101927.31;;;6.54;51.75
38780;BME280;29273;49.962;9.768;2023-02-10T13:23:49;101920.59;;;6.61;51.73
38780;BME280;29273;49.962;9.768;2023-02-10T13:28:50;101926.53;;;6.74;51.46
38780;BME280;29273;49.962;9.768;2023-02-10T13:34:04;101923.28;;;6.82;51.44
38780;BME280;29273;49.962;9.768;2023-02-10T13:36:39;101917.22;;;6.81;50.78
38780;BME280;29273;49.962;9.768;2023-02-10T13:39:16;101918.25;;;6.90;51.37
38780;BME280;29273;49.962;9.768;2023-02-10T13:41:47;101918.13;;;6.92;51.07
38780;BME280;29273;49.962;9.768;2023-02-10T13:44:28;101911.63;;;6.96;51.31
38780;BME280;29273;49.962;9.768;2023-02-10T13:49:22;101902.91;;;6.95;50.45
38780;BME280;29273;49.962;9.768;2023-02-10T13:51:50;101896.41;;;6.99;50.48
38780;BME280;29273;49.962;9.768;2023-02-10T13:54:32;101899.63;;;7.03;51.20
38780;BME280;29273;49.962;9.768;2023-02-10T13:56:58;101892.69;;;7.02;50.50
38780;BME280;29273;49.962;9.768;2023-02-10T13:59:42;101885.09;;;7.09;51.33
38780;BME280;29273;49.962;9.768;2023-02-10T14:02:19;101890.00;;;7.13;51.47
38780;BME280;29273;49.962;9.768;2023-02-10T14:04:54;101893.22;;;7.17;51.21
38780;BME280;29273;49.962;9.768;2023-02-10T14:12:58;101890.91;;;7.23;51.54
38780;BME280;29273;49.962;9.768;2023-02-10T14:15:27;101890.06;;;7.23;50.93
38780;BME280;29273;49.962;9.768;2023-02-10T14:17:59;101889.81;;;7.26;50.95
38780;BME280;29273;49.962;9.768;2023-02-10T14:20:31;101882.03;;;7.25;50.99
38780;BME280;29273;49.962;9.768;2023-02-10T14:22:57;101890.06;;;7.23;50.57